Time;durP1;ratioP1;P1;durP2;ratioP2;P2;SDS_P1;SDS_P2;PMS_P1;PMS_P2;Temp;Humidity;BMP_temperature;BMP_pressure;BME280_temperature;BME280_humidity;BME280_pressure;Samples;Min_cycle;Max_cycle;Signal;HPM_P1;HPM_P2
2022/03/18 00:00:40;;;;;;;13.07;3.70;;;7.00;96.70;;;;;;5116358;28;20383;-76
2022/03/18 00:03:06;;;;;;;13.95;3.58;;;6.90;96.70;;;;;;5115904;28;20505;-76
2022/03/18 00:05:32;;;;;;;18.52;3.80;;;7.00;96.80;;;;;;5116298;28;20050;-76
2022/03/18 00:07:58;;;;;;;13.52;4.75;;;6.90;96.80;;;;;;5116296;28;20061;-76
2022/03/18 00:10:24;;;;;;;17.08;4.50;;;6.90;96.80;;;;;;5116764;28;20043;-76
2022/03/18 00:12:53;;;;;;;12.30;3.97;;;7.00;97.00;;;;;;5082361;28;20443;-76
2022/03/18 00:15:23;;;;;;;19.13;5.00;;;6.90;96.90;;;;;;5099349;28;20473;-76
2022/03/18 00:17:52;;;;;;;16.42;4.47;;;7.10;96.90;;;;;;5099163;28;20050;-76
2022/03/18 00:20:18;;;;;;;12.15;4.32;;;7.00;96.90;;;;;;5102720;27;20047;-76
2022/03/18 00:22:45;;;;;;;15.45;4.43;;;7.00;96.70;;;;;;5119510;27;20051;-75
2022/03/18 00:25:12;;;;;;;14.32;4.60;;;7.00;96.90;;;;;;5120811;27;20047;-76
2022/03/18 00:27:39;;;;;;;15.52;3.80;;;7.00;96.90;;;;;;5119736;27;20125;-76
2022/03/18 00:30:13;;;;;;;13.05;3.45;;;6.90;96.90;;;;;;5102750;27;20479;-76
2022/03/18 00:32:39;;;;;;;11.60;3.97;;;6.90;96.90;;;;;;5086796;27;20046;-76
2022/03/18 00:35:10;;;;;;;17.30;4.97;;;6.90;96.90;;;;;;5119291;27;20443;-76
2022/03/18 00:37:39;;;;;;;15.43;4.57;;;6.80;97.00;;;;;;5102745;27;20047;-76
2022/03/18 00:40:06;;;;;;;13.43;4.47;;;6.90;97.00;;;;;;5102951;27;20122;-76
2022/03/18 00:42:32;;;;;;;14.18;4.35;;;6.80;97.00;;;;;;5119748;27;20140;-76
2022/03/18 00:44:59;;;;;;;11.93;4.88;;;6.80;97.00;;;;;;5119684;27;20051;-76
2022/03/18 00:52:53;;;;;;;19.95;5.47;;;6.90;97.00;;;;;;5105055;27;20104;-76
2022/03/18 00:55:19;;;;;;;14.07;5.25;;;6.90;96.90;;;;;;5102208;27;20084;-76
2022/03/18 00:57:44;;;;;;;13.40;4.63;;;6.90;97.10;;;;;;5119145;27;20035;-76
2022/03/18 01:00:11;;;;;;;17.88;5.30;;;6.90;97.00;;;;;;5120098;27;20101;-76
2022/03/18 01:02:37;;;;;;;16.98;4.97;;;6.90;97.00;;;;;;5119086;27;20051;-76
2022/03/18 01:05:03;;;;;;;16.38;5.10;;;6.80;97.00;;;;;;5101932;27;20417;-76
2022/03/18 01:07:29;;;;;;;19.60;5.55;;;6.80;97.10;;;;;;5102428;27;20039;-76
2022/03/18 01:09:56;;;;;;;18.33;5.72;;;6.80;97.20;;;;;;5101956;27;20087;-76
2022/03/18 01:12:21;;;;;;;12.77;5.10;;;6.80;97.20;;;;;;5119176;27;20405;-76
2022/03/18 01:14:47;;;;;;;21.38;5.88;;;6.80;97.10;;;;;;5119188;27;20039;-76
2022/03/18 01:17:13;;;;;;;22.75;6.53;;;6.80;97.20;;;;;;5118799;27;20127;-76
2022/03/18 01:19:40;;;;;;;14.63;5.63;;;6.70;97.10;;;;;;5102066;27;20047;-76
2022/03/18 01:22:08;;;;;;;16.10;5.70;;;6.80;97.20;;;;;;5118643;27;20043;-77
2022/03/18 01:24:35;;;;;;;20.27;6.25;;;6.80;97.20;;;;;;5102324;27;20055;-76
2022/03/18 01:27:01;;;;;;;18.88;5.95;;;6.70;97.20;;;;;;5101976;27;20055;-76
2022/03/18 01:29:27;;;;;;;14.75;5.35;;;6.70;97.30;;;;;;5085013;27;20138;-76
2022/03/18 01:31:53;;;;;;;13.95;5.13;;;6.70;97.40;;;;;;5101996;27;20213;-76
2022/03/18 01:34:19;;;;;;;12.13;5.13;;;6.70;97.40;;;;;;5102108;27;20062;-76
2022/03/18 01:36:45;;;;;;;17.08;5.88;;;6.70;97.30;;;;;;5118405;27;20047;-76
2022/03/18 01:39:12;;;;;;;16.30;6.22;;;6.70;97.30;;;;;;5101389;27;20046;-77
2022/03/18 01:41:39;;;;;;;17.90;5.95;;;6.60;97.40;;;;;;5101534;27;20474;-76
2022/03/18 01:44:12;;;;;;;13.23;5.70;;;6.60;97.30;;;;;;5118560;27;20126;-76
2022/03/18 01:46:38;;;;;;;17.45;5.90;;;6.70;97.40;;;;;;5118543;27;20039;-76
2022/03/18 01:49:08;;;;;;;21.35;6.38;;;6.70;97.30;;;;;;5118353;27;20039;-76
2022/03/18 01:51:34;;;;;;;20.88;7.13;;;6.60;97.40;;;;;;5118376;27;20541;-76
2022/03/18 01:56:45;;;;;;;20.75;6.38;;;6.50;97.60;;;;;;5117983;27;20106;-76
2022/03/18 01:59:13;;;;;;;14.02;6.15;;;6.50;97.50;;;;;;5117952;27;20042;-76
2022/03/18 02:01:39;;;;;;;19.35;6.25;;;6.50;97.30;;;;;;5118132;27;20143;-76
2022/03/18 02:04:05;;;;;;;14.68;5.70;;;6.40;97.40;;;;;;5117558;27;20059;-76
2022/03/18 02:06:32;;;;;;;17.77;6.97;;;6.40;97.30;;;;;;5101795;27;20043;-76
2022/03/18 02:08:58;;;;;;;19.60;7.25;;;6.40;97.30;;;;;;5084374;27;20047;-76
2022/03/18 02:11:25;;;;;;;13.23;6.40;;;6.50;97.40;;;;;;5117999;27;20049;-76
2022/03/18 02:13:56;;;;;;;16.02;7.32;;;6.30;97.60;;;;;;5117641;27;20118;-76
2022/03/18 02:16:22;;;;;;;24.67;7.68;;;6.30;97.70;;;;;;5100517;27;20458;-76
2022/03/18 02:18:47;;;;;;;25.02;7.97;;;6.40;97.80;;;;;;5117528;27;20096;-76
2022/03/18 02:21:14;;;;;;;13.82;5.95;;;6.50;97.80;;;;;;5118039;27;20082;-76
2022/03/18 02:23:42;;;;;;;19.52;6.53;;;6.50;97.60;;;;;;5116999;27;20054;-76
2022/03/18 02:26:07;;;;;;;18.40;6.50;;;6.50;97.60;;;;;;5117891;27;20108;-77
2022/03/18 02:28:33;;;;;;;19.88;7.25;;;6.40;97.80;;;;;;5117710;27;20084;-76
2022/03/18 02:30:59;;;;;;;18.23;6.15;;;6.30;97.90;;;;;;5117432;27;20453;-76
2022/03/18 02:33:25;;;;;;;17.02;6.30;;;6.30;97.90;;;;;;5118402;27;20051;-77
2022/03/18 02:35:54;;;;;;;15.05;5.35;;;6.40;97.80;;;;;;5117197;27;20050;-76
2022/03/18 02:38:20;;;;;;;19.70;7.00;;;6.40;97.70;;;;;;5117515;27;20043;-76
2022/03/18 02:40:45;;;;;;;14.77;5.85;;;6.40;97.70;;;;;;5100002;27;20051;-76
2022/03/18 02:43:11;;;;;;;17.50;6.57;;;6.40;97.90;;;;;;5100828;27;20489;-76
2022/03/18 02:45:37;;;;;;;21.77;6.65;;;6.40;97.70;;;;;;5117093;27;20043;-76
2022/03/18 02:48:03;;;;;;;20.17;7.50;;;6.40;97.70;;;;;;5117288;27;20054;-76
2022/03/18 02:50:28;;;;;;;15.00;6.03;;;6.40;97.60;;;;;;5117232;27;20066;-76
2022/03/18 02:52:54;;;;;;;16.45;5.97;;;6.30;97.60;;;;;;5116672;27;20474;-77
2022/03/18 02:55:21;;;;;;;17.65;6.43;;;6.40;97.60;;;;;;5100673;27;20039;-76
2022/03/18 02:57:47;;;;;;;11.27;5.43;;;6.30;97.60;;;;;;5116880;27;20119;-76
2022/03/18 03:00:13;;;;;;;21.58;6.03;;;6.30;97.60;;;;;;5117090;27;20426;-76
2022/03/18 03:02:39;;;;;;;13.32;5.35;;;6.30;97.70;;;;;;5099770;27;20051;-76
2022/03/18 03:08:01;;;;;;;16.98;6.30;;;6.20;97.50;;;;;;5116954;27;20059;-76
2022/03/18 03:10:36;;;;;;;16.67;5.72;;;6.20;97.50;;;;;;5117258;27;20180;-75
2022/03/18 03:13:06;;;;;;;23.88;8.32;;;6.10;97.60;;;;;;5084657;27;20447;-76
2022/03/18 03:15:33;;;;;;;16.95;6.63;;;6.10;97.70;;;;;;5100664;27;20504;-76
2022/03/18 03:17:59;;;;;;;17.80;6.68;;;6.00;97.90;;;;;;5099772;27;20482;-76
2022/03/18 03:20:25;;;;;;;17.23;6.40;;;6.10;97.80;;;;;;5116818;27;20127;-76
2022/03/18 03:22:50;;;;;;;17.20;6.03;;;6.10;97.90;;;;;;5116194;28;20464;-76
2022/03/18 03:25:16;;;;;;;15.02;6.85;;;6.10;97.80;;;;;;5099423;28;20121;-76
2022/03/18 03:27:42;;;;;;;14.05;5.97;;;6.10;97.80;;;;;;5116727;27;20057;-76
2022/03/18 03:30:10;;;;;;;16.55;5.93;;;6.00;97.80;;;;;;5117056;27;20408;-76
2022/03/18 03:32:36;;;;;;;14.23;6.00;;;6.00;97.80;;;;;;5099979;28;20078;-76
2022/03/18 03:35:04;;;;;;;13.38;6.25;;;6.00;97.90;;;;;;5116505;28;20125;-76
2022/03/18 03:37:30;;;;;;;18.05;7.20;;;6.10;97.80;;;;;;5116619;28;20039;-76
2022/03/18 03:39:56;;;;;;;19.25;6.50;;;6.10;97.80;;;;;;5116594;28;20135;-76
2022/03/18 03:42:22;;;;;;;20.15;6.75;;;6.10;97.80;;;;;;5099275;28;20046;-76
2022/03/18 03:44:48;;;;;;;15.10;6.85;;;6.00;97.90;;;;;;5117337;28;20051;-76
2022/03/18 03:47:14;;;;;;;16.08;7.00;;;6.10;98.00;;;;;;5116219;28;20479;-76
2022/03/18 03:49:40;;;;;;;16.13;6.05;;;6.00;97.80;;;;;;5116244;28;20080;-76
2022/03/18 03:52:09;;;;;;;13.23;5.72;;;6.10;97.80;;;;;;5099261;27;20081;-76
2022/03/18 03:54:35;;;;;;;17.40;6.35;;;6.10;97.90;;;;;;5118697;27;20039;-76
2022/03/18 03:57:01;;;;;;;12.55;6.03;;;6.00;97.90;;;;;;5103054;27;20046;-76
2022/03/18 03:59:27;;;;;;;10.50;5.32;;;6.00;97.80;;;;;;5120704;27;20043;-76
2022/03/18 04:01:52;;;;;;;18.08;7.03;;;6.00;97.80;;;;;;5120439;27;20074;-76
2022/03/18 04:04:18;;;;;;;16.25;6.25;;;6.00;97.80;;;;;;5103033;27;20081;-76
2022/03/18 04:06:44;;;;;;;16.58;5.82;;;6.10;97.90;;;;;;5120500;27;20057;-76
2022/03/18 04:09:09;;;;;;;14.13;6.28;;;6.10;97.90;;;;;;5120420;27;20043;-76
2022/03/18 04:11:35;;;;;;;16.42;6.32;;;6.00;97.80;;;;;;5103321;27;20088;-76
2022/03/18 04:14:01;;;;;;;17.70;7.15;;;6.00;97.90;;;;;;5120346;27;20050;-76
2022/03/18 04:16:26;;;;;;;11.50;6.00;;;6.00;98.00;;;;;;5119867;27;20039;-77
2022/03/18 04:18:52;;;;;;;17.83;7.28;;;6.00;98.00;;;;;;5120266;27;20481;-76
2022/03/18 04:21:17;;;;;;;14.32;6.32;;;6.00;98.10;;;;;;5119871;27;20057;-76
2022/03/18 04:23:43;;;;;;;15.30;7.88;;;5.90;98.20;;;;;;5119556;27;20043;-76
2022/03/18 04:26:09;;;;;;;18.33;7.03;;;5.90;98.40;;;;;;5103129;27;20197;-76
2022/03/18 04:28:34;;;;;;;18.88;7.63;;;5.90;98.50;;;;;;5086117;27;20047;-76
2022/03/18 04:31:00;;;;;;;20.00;7.38;;;5.90;98.70;;;;;;5102941;27;20051;-76
2022/03/18 04:33:26;;;;;;;23.27;7.65;;;6.00;98.80;;;;;;5102969;27;20043;-76
2022/03/18 04:35:52;;;;;;;18.33;8.55;;;6.10;98.80;;;;;;5085830;27;20053;-76
2022/03/18 04:38:18;;;;;;;16.63;7.18;;;6.10;98.90;;;;;;5120510;27;20051;-76
2022/03/18 04:40:44;;;;;;;22.17;8.05;;;6.00;99.00;;;;;;5120555;27;20370;-76
2022/03/18 04:43:09;;;;;;;19.90;7.60;;;6.10;99.00;;;;;;5120273;27;20051;-76
2022/03/18 04:45:35;;;;;;;23.88;8.95;;;6.20;99.00;;;;;;5119730;27;20382;-76
2022/03/18 04:48:01;;;;;;;17.70;7.15;;;6.30;99.00;;;;;;5119622;27;20047;-76
2022/03/18 04:50:28;;;;;;;16.02;8.07;;;6.40;98.90;;;;;;5085943;27;20082;-76
2022/03/18 04:52:53;;;;;;;21.63;8.18;;;6.40;98.80;;;;;;5102099;27;20123;-76
2022/03/18 04:55:19;;;;;;;18.67;7.57;;;6.50;98.90;;;;;;5085603;27;20047;-76
2022/03/18 04:57:45;;;;;;;12.23;6.80;;;6.50;98.80;;;;;;5119393;27;20501;-76
2022/03/18 05:00:12;;;;;;;23.02;7.20;;;6.50;98.90;;;;;;5119499;27;20068;-76
2022/03/18 05:02:38;;;;;;;16.50;7.40;;;6.60;98.90;;;;;;5119202;28;20123;-76
2022/03/18 05:05:08;;;;;;;16.92;7.00;;;6.60;98.70;;;;;;5101251;28;20125;-76
2022/03/18 05:07:35;;;;;;;17.40;7.28;;;6.70;98.50;;;;;;5117873;28;20051;-76
2022/03/18 05:10:01;;;;;;;17.85;7.38;;;6.60;98.40;;;;;;5117948;28;20046;-76
2022/03/18 05:12:27;;;;;;;18.88;6.72;;;6.60;98.40;;;;;;5117836;28;20058;-76
2022/03/18 05:14:54;;;;;;;14.85;6.85;;;6.60;98.40;;;;;;5100748;28;20611;-76
2022/03/18 05:17:19;;;;;;;14.50;7.72;;;6.60;98.30;;;;;;5117648;28;20091;-76
2022/03/18 05:19:45;;;;;;;24.00;10.25;;;6.50;98.20;;;;;;5100879;28;20443;-76
2022/03/18 05:22:11;;;;;;;17.17;7.55;;;6.40;98.30;;;;;;5083828;28;20045;-76
2022/03/18 05:24:36;;;;;;;20.20;7.10;;;6.30;98.30;;;;;;5100314;28;20047;-76
2022/03/18 05:27:03;;;;;;;13.30;7.20;;;6.20;98.30;;;;;;5100645;28;20234;-76
2022/03/18 05:29:29;;;;;;;16.15;7.43;;;6.20;98.30;;;;;;5117737;28;20051;-76
2022/03/18 05:31:57;;;;;;;16.90;7.05;;;6.20;98.20;;;;;;5117735;28;20046;-76
2022/03/18 05:34:23;;;;;;;25.38;9.02;;;6.10;98.30;;;;;;5117344;28;20055;-76
2022/03/18 05:36:50;;;;;;;12.57;7.30;;;6.10;98.40;;;;;;5100534;28;20048;-76
2022/03/18 05:39:15;;;;;;;13.10;6.40;;;6.10;98.30;;;;;;5117584;28;20040;-76
2022/03/18 05:41:44;;;;;;;11.55;6.65;;;6.10;98.20;;;;;;5118054;28;20050;-76
2022/03/18 05:44:10;;;;;;;15.80;7.32;;;6.10;98.10;;;;;;5117527;28;20043;-76
2022/03/18 05:46:36;;;;;;;16.88;8.32;;;6.10;98.10;;;;;;5117658;28;20039;-76
2022/03/18 05:49:03;;;;;;;20.55;8.15;;;6.10;98.30;;;;;;5118395;28;20054;-76
2022/03/18 05:51:30;;;;;;;15.90;7.57;;;6.10;98.30;;;;;;5100603;28;20054;-76
2022/03/18 05:53:56;;;;;;;19.40;8.00;;;6.10;98.20;;;;;;5116934;28;20130;-76
2022/03/18 05:59:10;;;;;;;20.42;7.60;;;6.00;98.40;;;;;;5117289;28;20105;-76
2022/03/18 06:01:40;;;;;;;20.17;8.25;;;6.00;98.20;;;;;;5100222;28;20050;-76
2022/03/18 06:04:10;;;;;;;14.43;8.18;;;6.10;98.30;;;;;;5074592;28;1111366;-76
2022/03/18 06:06:37;;;;;;;19.33;8.20;;;6.10;98.30;;;;;;5114790;28;20055;-76
2022/03/18 06:11:48;;;;;;;22.23;8.23;;;6.00;98.20;;;;;;5114631;28;20059;-76
2022/03/18 06:14:15;;;;;;;14.52;8.05;;;5.80;98.40;;;;;;5114645;28;20483;-76
2022/03/18 06:16:40;;;;;;;15.85;7.70;;;5.80;98.50;;;;;;5113347;28;20046;-76
2022/03/18 06:19:07;;;;;;;17.92;8.07;;;5.90;98.50;;;;;;5114445;28;20047;-76
2022/03/18 06:21:32;;;;;;;14.88;7.28;;;5.90;98.50;;;;;;5097468;28;20043;-75
2022/03/18 06:23:58;;;;;;;16.67;8.20;;;5.90;98.40;;;;;;5096827;28;20390;-76
2022/03/18 06:26:24;;;;;;;15.13;7.93;;;6.00;98.30;;;;;;5097380;28;20048;-75
2022/03/18 06:28:50;;;;;;;17.33;9.18;;;6.10;98.40;;;;;;5114070;28;20047;-75
2022/03/18 06:31:16;;;;;;;22.15;10.00;;;6.20;98.40;;;;;;5114718;28;20040;-78
2022/03/18 06:33:44;;;;;;;16.40;8.75;;;6.20;98.40;;;;;;5097402;28;20428;-75
2022/03/18 06:36:11;;;;;;;10.10;6.00;;;6.30;98.40;;;;;;5113942;28;20054;-77
2022/03/18 06:38:37;;;;;;;12.10;6.85;;;6.60;98.90;;;;;;5097033;28;20526;-77
2022/03/18 06:41:02;;;;;;;15.65;7.82;;;6.90;98.60;;;;;;5080217;28;20127;-77
2022/03/18 06:43:28;;;;;;;17.73;9.73;;;7.20;98.10;;;;;;5097098;28;20184;-76
2022/03/18 06:45:54;;;;;;;18.60;8.38;;;7.40;97.60;;;;;;5080161;28;20413;-75
2022/03/18 06:48:19;;;;;;;17.25;9.73;;;7.30;97.40;;;;;;5114031;28;20062;-76
2022/03/18 06:50:45;;;;;;;20.40;9.02;;;7.10;97.50;;;;;;5080242;28;20048;-76
2022/03/18 06:53:11;;;;;;;14.02;7.88;;;6.90;97.90;;;;;;5096793;28;20043;-76
2022/03/18 06:55:37;;;;;;;19.73;9.10;;;6.80;98.00;;;;;;5113475;28;20235;-75
2022/03/18 06:58:03;;;;;;;17.38;9.65;;;6.80;98.00;;;;;;5113730;28;20062;-75
2022/03/18 07:00:29;;;;;;;17.80;10.02;;;6.80;98.20;;;;;;5124076;27;20043;-75
2022/03/18 07:02:54;;;;;;;22.13;9.77;;;6.90;98.30;;;;;;5130557;27;20056;-75
2022/03/18 07:05:20;;;;;;;14.38;8.25;;;6.90;98.30;;;;;;5126318;27;20078;-76
2022/03/18 07:07:48;;;;;;;12.13;7.78;;;7.10;98.40;;;;;;5134149;27;20054;-76
2022/03/18 07:10:14;;;;;;;15.85;8.50;;;7.40;98.30;;;;;;5133951;27;20435;-76
2022/03/18 07:12:40;;;;;;;21.33;10.48;;;7.50;98.00;;;;;;5116895;27;20049;-75
2022/03/18 07:15:07;;;;;;;18.98;10.35;;;7.60;97.90;;;;;;5134359;27;20125;-75
2022/03/18 07:20:17;;;;;;;20.08;10.50;;;7.60;98.00;;;;;;5134228;27;20054;-75
2022/03/18 07:22:43;;;;;;;30.05;12.45;;;7.60;98.20;;;;;;5116185;27;20300;-75
2022/03/18 07:25:09;;;;;;;26.92;13.98;;;7.60;98.30;;;;;;5116639;27;20051;-75
2022/03/18 07:27:35;;;;;;;28.50;16.00;;;7.50;98.40;;;;;;5133663;27;20051;-75
2022/03/18 07:30:04;;;;;;;22.95;13.60;;;7.50;98.50;;;;;;5133909;27;20082;-75
2022/03/18 07:32:30;;;;;;;21.80;12.10;;;7.40;98.80;;;;;;5133815;27;20367;-75
2022/03/18 07:34:56;;;;;;;21.60;13.95;;;7.50;98.90;;;;;;5116598;28;20062;-76
2022/03/18 07:37:22;;;;;;;23.70;13.20;;;7.70;98.90;;;;;;5133066;27;20036;-75
2022/03/18 07:39:48;;;;;;;24.13;13.95;;;7.80;98.90;;;;;;5139707;27;20054;-75
2022/03/18 07:42:13;;;;;;;24.73;13.95;;;8.00;98.70;;;;;;5121883;28;20051;-73
2022/03/18 07:44:39;;;;;;;27.42;14.63;;;8.10;98.60;;;;;;5133796;28;20043;-74
2022/03/18 07:47:05;;;;;;;27.63;14.45;;;8.10;98.60;;;;;;5133653;28;20039;-74
2022/03/18 07:49:32;;;;;;;27.30;15.45;;;8.00;98.60;;;;;;5116554;28;20049;-76
2022/03/18 07:51:57;;;;;;;28.85;15.38;;;8.20;98.80;;;;;;5133825;28;20050;-76
2022/03/18 07:54:23;;;;;;;32.42;15.30;;;8.20;98.70;;;;;;5115860;28;20050;-76
2022/03/18 07:56:51;;;;;;;23.15;13.35;;;8.40;98.70;;;;;;5133472;28;20481;-81
2022/03/18 07:59:16;;;;;;;27.67;13.93;;;8.40;98.70;;;;;;5116850;28;20051;-75
2022/03/18 08:01:42;;;;;;;20.10;11.88;;;8.30;98.90;;;;;;5133514;28;20039;-72
2022/03/18 08:04:09;;;;;;;24.77;11.82;;;8.50;98.80;;;;;;5133291;28;20051;-72
2022/03/18 08:06:35;;;;;;;25.13;12.57;;;8.60;98.60;;;;;;5133409;28;20047;-72
2022/03/18 08:09:00;;;;;;;32.17;12.98;;;8.70;98.40;;;;;;5133144;28;20047;-76
2022/03/18 08:11:26;;;;;;;30.00;14.02;;;8.70;98.60;;;;;;5133440;28;20099;-73
2022/03/18 08:13:52;;;;;;;30.15;13.98;;;8.80;98.90;;;;;;5133321;28;20050;-76
2022/03/18 08:16:18;;;;;;;31.98;13.82;;;9.00;98.80;;;;;;5115759;28;20039;-76
2022/03/18 08:18:44;;;;;;;23.70;12.80;;;8.90;98.90;;;;;;5133088;28;20035;-75
2022/03/18 08:21:10;;;;;;;28.38;14.18;;;9.20;98.90;;;;;;5134828;28;20091;-76
2022/03/18 08:23:36;;;;;;;27.15;14.65;;;9.40;98.80;;;;;;5132761;28;20398;-75
2022/03/18 08:26:01;;;;;;;25.40;14.10;;;9.50;98.70;;;;;;5116160;28;20047;-76
2022/03/18 08:28:27;;;;;;;26.98;13.65;;;9.70;98.60;;;;;;5133824;28;20050;-76
2022/03/18 08:30:53;;;;;;;25.00;13.13;;;9.70;98.60;;;;;;5133258;28;20466;-76
2022/03/18 08:33:19;;;;;;;26.92;14.88;;;9.90;98.50;;;;;;5116138;28;20088;-76
2022/03/18 08:35:45;;;;;;;25.90;14.20;;;10.10;98.50;;;;;;5116132;28;20046;-75
2022/03/18 08:38:11;;;;;;;27.48;15.00;;;10.30;98.40;;;;;;5133191;28;20050;-76
2022/03/18 08:40:37;;;;;;;31.88;14.23;;;10.40;98.40;;;;;;5135722;27;20047;-73
2022/03/18 08:43:05;;;;;;;35.50;12.85;;;10.60;98.30;;;;;;5136795;27;20071;-80
2022/03/18 08:45:32;;;;;;;25.58;12.75;;;10.60;98.40;;;;;;5138204;27;20125;-75
2022/03/18 08:47:58;;;;;;;29.77;12.60;;;10.70;98.20;;;;;;5138027;27;20099;-73
2022/03/18 08:50:24;;;;;;;31.00;13.25;;;10.70;98.50;;;;;;5137961;27;20040;-73
2022/03/18 08:52:53;;;;;;;25.33;10.18;;;10.90;98.40;;;;;;5136221;27;20051;-73
2022/03/18 08:55:20;;;;;;;30.85;11.18;;;11.00;98.40;;;;;;5116649;27;20047;-73
2022/03/18 08:57:45;;;;;;;30.45;10.00;;;11.20;98.50;;;;;;5100457;28;20073;-74
2022/03/18 09:00:14;;;;;;;31.88;11.35;;;11.20;98.20;;;;;;5098069;28;20101;-73
2022/03/18 09:02:42;;;;;;;27.50;9.57;;;11.30;98.40;;;;;;5120439;27;20055;-73
2022/03/18 09:05:09;;;;;;;23.40;9.15;;;11.30;98.20;;;;;;5115628;27;20405;-73
2022/03/18 09:07:36;;;;;;;23.20;9.77;;;11.40;98.10;;;;;;5118496;27;20147;-73
2022/03/18 09:10:04;;;;;;;26.85;8.65;;;11.60;98.30;;;;;;5100120;28;20421;-73
2022/03/18 09:12:29;;;;;;;29.77;8.88;;;11.50;98.00;;;;;;5102811;28;20483;-73
2022/03/18 09:14:55;;;;;;;24.00;9.25;;;11.50;98.00;;;;;;5093928;28;20057;-76
2022/03/18 09:17:28;;;;;;;25.75;9.68;;;11.60;97.90;;;;;;5094724;28;20036;-71
2022/03/18 09:19:54;;;;;;;26.83;9.20;;;11.80;98.30;;;;;;5096580;28;20445;-73
2022/03/18 09:22:20;;;;;;;25.85;9.18;;;11.90;98.00;;;;;;5096310;28;20056;-73
2022/03/18 09:24:46;;;;;;;30.15;9.10;;;12.10;98.10;;;;;;5095582;28;20044;-74
2022/03/18 09:27:14;;;;;;;23.88;9.48;;;12.10;97.60;;;;;;5096069;28;20043;-75
2022/03/18 09:29:40;;;;;;;27.98;10.77;;;12.20;97.80;;;;;;5061773;28;20104;-75
2022/03/18 09:32:06;;;;;;;18.98;9.15;;;12.30;97.80;;;;;;5094955;28;20135;-75
2022/03/18 09:34:32;;;;;;;24.20;8.82;;;12.50;97.60;;;;;;5095005;28;20048;-75
2022/03/18 09:36:59;;;;;;;22.92;8.23;;;12.60;97.70;;;;;;5094414;28;20047;-75
2022/03/18 09:39:26;;;;;;;22.33;9.43;;;12.70;97.50;;;;;;5094907;28;20494;-75
2022/03/18 09:41:53;;;;;;;26.05;11.57;;;12.70;97.30;;;;;;5095169;28;20055;-75
2022/03/18 09:44:19;;;;;;;30.52;9.60;;;12.90;97.20;;;;;;5094814;28;20040;-75
2022/03/18 09:46:51;;;;;;;23.73;8.52;;;13.00;97.20;;;;;;5095751;28;20487;-75
2022/03/18 09:49:20;;;;;;;26.33;8.32;;;13.10;96.90;;;;;;5095100;28;20066;-75
2022/03/18 09:51:47;;;;;;;21.77;8.20;;;13.20;96.80;;;;;;5093448;28;20540;-75
2022/03/18 09:54:14;;;;;;;23.08;8.73;;;13.40;96.80;;;;;;5094369;28;20059;-75
2022/03/18 09:56:45;;;;;;;22.98;9.32;;;13.60;96.70;;;;;;5094426;28;20048;-75
2022/03/18 09:59:11;;;;;;;29.20;9.02;;;13.50;96.60;;;;;;5078014;28;20048;-72
2022/03/18 10:01:37;;;;;;;27.17;8.98;;;13.60;96.40;;;;;;5077563;28;20052;-75
2022/03/18 10:04:07;;;;;;;22.50;8.95;;;13.60;96.40;;;;;;5113980;27;20050;-75
2022/03/18 10:06:34;;;;;;;26.20;9.02;;;13.90;96.60;;;;;;5136276;27;20047;-75
2022/03/18 10:09:01;;;;;;;27.20;9.77;;;14.10;96.50;;;;;;5118158;27;20050;-75
2022/03/18 10:11:32;;;;;;;31.13;9.30;;;14.30;96.20;;;;;;5101039;27;20084;-74
2022/03/18 10:14:06;;;;;;;25.50;8.50;;;14.40;95.80;;;;;;5100812;27;20126;-78
2022/03/18 10:16:36;;;;;;;21.20;7.05;;;14.60;96.00;;;;;;5117948;27;20043;-76
2022/03/18 10:19:06;;;;;;;22.13;8.60;;;14.30;95.80;;;;;;5117578;27;20074;-76
2022/03/18 10:21:48;;;;;;;14.57;6.78;;;14.60;96.20;;;;;;5118222;27;20090;-76
2022/03/18 10:24:14;;;;;;;24.33;7.75;;;14.80;95.50;;;;;;5118424;27;20367;-74
2022/03/18 10:26:39;;;;;;;21.80;8.55;;;15.10;95.50;;;;;;5117872;27;20509;-74
2022/03/18 10:29:11;;;;;;;20.13;7.43;;;15.10;95.50;;;;;;5117393;27;20122;-72
2022/03/18 10:31:39;;;;;;;17.77;6.93;;;15.10;95.10;;;;;;5117911;27;20107;-73
2022/03/18 10:37:04;;;;;;;28.77;7.38;;;15.60;94.80;;;;;;5117090;27;20093;-73
2022/03/18 10:39:30;;;;;;;16.38;7.20;;;15.60;94.70;;;;;;5117809;27;20047;-78
2022/03/18 10:41:57;;;;;;;22.83;7.50;;;15.60;94.40;;;;;;5100147;27;20454;-85
2022/03/18 10:44:23;;;;;;;20.20;6.70;;;15.50;95.00;;;;;;5117101;27;20421;-76
2022/03/18 10:46:50;;;;;;;18.80;7.75;;;15.40;94.90;;;;;;5117396;27;20047;-76
2022/03/18 10:49:17;;;;;;;18.75;7.47;;;15.60;94.50;;;;;;5117487;27;20111;-88
2022/03/18 10:51:43;;;;;;;20.60;7.18;;;15.50;94.70;;;;;;5117599;27;20466;-84
2022/03/18 10:54:08;;;;;;;23.88;7.32;;;14.90;94.80;;;;;;5099921;27;20039;-83
2022/03/18 10:56:56;;;;;;;18.65;7.30;;;14.70;95.30;;;;;;5099983;27;20058;-84
2022/03/18 10:59:24;;;;;;;21.83;7.47;;;14.80;95.80;;;;;;5117259;27;20130;-89
2022/03/18 11:01:51;;;;;;;22.73;7.15;;;14.60;95.70;;;;;;5117204;27;20162;-86
2022/03/18 11:04:18;;;;;;;25.10;7.43;;;14.70;95.40;;;;;;5100161;27;20055;-86
2022/03/18 11:07:29;;;;;;;20.35;6.57;;;15.10;95.40;;;;;;5103469;27;20051;-84
2022/03/18 11:11:07;;;;;;;19.85;6.63;;;14.80;95.20;;;;;;5089444;27;20047;-86
2022/03/18 11:12:24;;;;;;;18.95;6.40;;;14.80;95.20;;;;;;5123752;27;20055;-81
2022/03/18 11:14:54;;;;;;;19.67;6.95;;;14.90;95.40;;;;;;5102237;27;20051;-84
2022/03/18 11:17:21;;;;;;;20.90;6.30;;;15.00;94.80;;;;;;5099858;27;20050;-76
2022/03/18 11:19:47;;;;;;;16.38;6.82;;;15.40;95.00;;;;;;5116901;27;20213;-74
2022/03/18 11:22:16;;;;;;;36.55;15.02;;;16.20;94.30;;;;;;5117138;27;20590;-74
2022/03/18 11:24:44;;;;;;;24.33;10.35;;;16.70;93.50;;;;;;5116255;27;20533;-74
2022/03/18 11:27:12;;;;;;;37.03;13.18;;;17.20;93.10;;;;;;5116967;27;20051;-74
2022/03/18 11:29:39;;;;;;;20.02;7.85;;;17.60;92.60;;;;;;5116794;27;20074;-82
2022/03/18 11:32:17;;;;;;;21.58;6.97;;;17.70;92.80;;;;;;5116773;27;20043;-85
2022/03/18 11:35:00;;;;;;;23.30;7.50;;;17.50;93.00;;;;;;5117064;27;20051;-81
2022/03/18 11:37:26;;;;;;;19.85;6.50;;;17.30;92.70;;;;;;5116822;27;20415;-88
2022/03/18 11:40:12;;;;;;;18.92;6.82;;;16.90;92.70;;;;;;5117307;28;20051;-88
2022/03/18 11:42:38;;;;;;;18.40;6.45;;;16.80;93.20;;;;;;5103063;28;20043;-86
2022/03/18 11:45:06;;;;;;;22.70;7.20;;;17.00;92.90;;;;;;5116560;28;20385;-74
2022/03/18 11:47:32;;;;;;;24.05;7.90;;;17.00;93.20;;;;;;5116504;28;20489;-84
2022/03/18 11:49:59;;;;;;;16.17;6.25;;;17.30;92.60;;;;;;5105304;28;20064;-86
2022/03/18 11:52:25;;;;;;;15.25;6.20;;;17.00;92.40;;;;;;5116476;28;20047;-85
2022/03/18 11:55:00;;;;;;;15.25;6.30;;;16.80;92.90;;;;;;5116083;28;20502;-84
2022/03/18 11:57:48;;;;;;;19.40;6.20;;;17.00;92.80;;;;;;5116144;28;20050;-85
2022/03/18 12:00:42;;;;;;;19.80;6.18;;;17.30;92.30;;;;;;5116732;28;20050;-85
2022/03/18 12:03:09;;;;;;;18.45;5.80;;;17.40;91.90;;;;;;5113872;28;20051;-84
2022/03/18 12:05:55;;;;;;;18.15;5.75;;;17.40;92.20;;;;;;5100445;28;20363;-75
2022/03/18 12:08:51;;;;;;;14.65;5.40;;;17.70;92.20;;;;;;5116137;28;20093;-72
2022/03/18 12:11:32;;;;;;;16.63;5.57;;;18.30;91.60;;;;;;5116962;28;20108;-73
2022/03/18 12:13:59;;;;;;;16.38;5.53;;;18.40;91.60;;;;;;5116580;28;20047;-74
2022/03/18 12:16:24;;;;;;;14.85;6.03;;;18.50;91.50;;;;;;5102893;27;20035;-76
2022/03/18 12:18:55;;;;;;;17.98;5.88;;;18.60;91.20;;;;;;5119679;27;20108;-76
2022/03/18 12:21:35;;;;;;;18.00;5.70;;;18.40;91.20;;;;;;5120136;27;20043;-75
2022/03/18 12:24:03;;;;;;;16.23;4.88;;;18.40;90.90;;;;;;5119580;27;20102;-75
2022/03/18 12:26:29;;;;;;;19.55;5.55;;;18.50;91.10;;;;;;5119830;27;20047;-76
2022/03/18 12:28:55;;;;;;;20.65;5.95;;;18.40;90.70;;;;;;5120110;27;20068;-75
2022/03/18 12:31:21;;;;;;;19.15;5.80;;;18.20;91.10;;;;;;5120813;27;20092;-76
2022/03/18 12:33:55;;;;;;;23.23;5.80;;;18.60;91.20;;;;;;5086238;27;20126;-75
2022/03/18 12:36:28;;;;;;;17.23;5.45;;;18.70;91.20;;;;;;5119732;27;20051;-75
2022/03/18 12:39:11;;;;;;;14.95;4.88;;;19.10;90.50;;;;;;5120221;27;20107;-77
2022/03/18 12:41:37;;;;;;;15.55;5.13;;;19.40;90.40;;;;;;5119929;27;20076;-81
2022/03/18 12:44:04;;;;;;;19.92;6.57;;;19.50;90.20;;;;;;5102627;27;20047;-79
2022/03/18 12:46:31;;;;;;;15.95;4.68;;;19.40;90.20;;;;;;5086054;27;20039;-80
2022/03/18 12:48:57;;;;;;;17.48;4.57;;;19.60;90.00;;;;;;5119536;27;20039;-78
2022/03/18 12:51:23;;;;;;;17.40;4.50;;;20.20;89.60;;;;;;5119826;27;20043;-76
2022/03/18 12:53:49;;;;;;;17.38;5.10;;;20.50;88.90;;;;;;5102230;27;20055;-79
2022/03/18 12:56:16;;;;;;;18.27;5.03;;;20.00;89.40;;;;;;5102487;27;20049;-87
2022/03/18 12:58:44;;;;;;;17.08;5.13;;;19.40;89.60;;;;;;5119563;27;20084;-83
2022/03/18 13:01:11;;;;;;;16.70;4.60;;;19.10;90.10;;;;;;5102176;27;20054;-79
2022/03/18 13:03:51;;;;;;;14.77;4.63;;;19.40;90.00;;;;;;5119046;27;20494;-81